Latest Coastal Weather Observations for Coffs Harbour

IDN60701

Issued at 12:55 am EDT Thursday 23 October 2014 (issued every 10 minutes, with the page automatically refreshed every 10 minutes)

About coastal observations | Map of coastal stations | Coastal observations for NSW | Marine services | Other Formats
Station Details ID: 059040 Name: COFFS HARBOUR MO Lat: -30.31 Lon: 153.12 Height: 5.0 m
Data from the previous 72 hours. | See also: Recent months at Coffs Harbour
Date/Time
EDT
Temp

°C
Wind Pressure Rain
since 9am
mm
Weather Cloud Vis
km
Sea
Height
m
Swell
Dir
 
Speed
knots
Gust
knots
hPa Trend Height
m
Period
s
Dir
23/12:30am 15.4 N 7 8 1022.4 - 0.0 - - 10 - - - -
23/12:00am 15.6 N 6 6 1023.0 - 0.0 - Mostly cloudy 10 - - - -
 
Date/Time
EDT
Temp

°C
Wind Pressure Rain
since 9am
mm
Weather Cloud Vis
km
Sea
Height
m
Swell
Dir
 
Speed
knots
Gust
knots
hPa Trend Height
m
Period
s
Dir
22/11:30pm 15.3 NNW 5 6 1023.2 - 0.0 - Partly cloudy 10 - - - -
22/11:00pm 14.5 NNW 5 6 1023.4 - 0.0 - - 10 - - - -
22/10:30pm 14.9 NNW 6 7 1023.6 - 0.0 - - 10 - - - -
22/10:00pm 15.4 NW 8 10 1023.7 - 0.0 - - 10 - - - -
22/09:30pm 15.3 NNW 6 8 1023.7 - 0.0 - - 10 - - - -
22/09:00pm 16.0 N 5 6 1023.6 - 0.0 - - 10 - - - -
22/08:30pm 16.9 NNW 5 7 1023.5 - 0.0 - - 10 - - - -
22/08:00pm 17.9 N 7 9 1023.4 - 0.0 - - 10 - - - -
22/07:30pm 18.0 N 7 9 1023.2 - 0.0 - - 10 - - - -
22/07:00pm 18.7 NNE 8 12 1023.1 - 0.0 - - 10 - - - -
22/06:30pm 19.2 NNE 11 14 1023.0 - 0.0 - - 10 - - - -
22/06:00pm 19.6 ENE 9 13 1023.1 - 0.0 - - 10 - - - -
22/05:30pm 20.2 NE 9 14 1023.0 - 0.0 - - 10 - - - -
22/05:00pm 20.1 ENE 8 12 1023.1 - 0.0 - - 10 - - - -
22/04:30pm 20.1 E 10 14 1023.0 - 0.0 - - 10 - - - -
22/04:00pm 20.8 E 9 12 1023.2 - 0.0 - - 10 - - - -
22/03:30pm 21.0 E 9 14 1023.5 - 0.0 - - 10 - - - -
22/03:00pm 21.5 E 10 14 1024.0 - 0.0 - - 10 - - - -
22/02:30pm 21.1 E 10 13 1024.2 - 0.0 - - 10 - - - -
22/02:00pm 21.2 ESE 9 12 1024.6 - 0.0 - - 10 - - - -
22/01:30pm 21.3 ESE 10 13 1025.0 - 0.0 - - 10 - - - -
22/01:00pm 21.3 ESE 10 14 1025.5 - 0.0 - - 10 - - - -
22/12:30pm 20.7 SE 10 12 1025.9 - 0.0 - - 10 - - - -
22/12:00pm 20.4 SSE 10 13 1026.4 - 0.0 - - 10 - - - -
22/11:30am 20.9 S 11 14 1026.6 - 0.0 - - 10 - - - -
22/11:00am 20.1 S 10 14 1026.9 - 0.0 - - 10 - - - -
22/10:30am 20.3 S 10 15 1027.0 - 0.0 - - 10 - - - -
22/10:00am 19.8 S 10 13 1027.1 - 0.0 - - 10 - - - -
22/09:30am 19.4 SW 8 11 1027.2 - 0.0 - Cloudy 10 - - - -
22/09:00am 18.2 WSW 8 10 1027.3 - 2.2 - Cloudy 10 - - - -
22/08:30am 17.4 WSW 7 9 1027.1 - 2.2 - Cloudy 10 - - - -
22/08:00am 16.7 WSW 9 12 1026.9 - 2.2 - Cloudy 10 - - - -
22/07:30am 16.0 WSW 9 11 1027.0 - 2.2 - Cloudy 10 - - - -
22/07:00am 14.8 WSW 7 9 1026.9 - 2.2 - Cloudy 10 - - - -
22/06:30am 13.6 W 7 10 1026.8 - 2.2 - Cloudy 10 - - - -
22/06:00am 13.2 WSW 7 9 1026.8 - 2.2 - Partly cloudy 10 - - - -
22/05:30am 13.0 SSW 6 7 1026.6 - 2.2 - Partly cloudy 10 - - - -
22/05:00am 13.3 WSW 5 7 1026.5 - 2.2 - Partly cloudy 10 - - - -
22/04:30am 13.8 W 9 14 1026.6 - 2.2 - Partly cloudy 10 - - - -
22/04:00am 13.7 WSW 10 14 1027.0 - 2.2 - Partly cloudy 10 - - - -
22/03:30am 13.6 WSW 8 12 1027.3 - 2.2 - Partly cloudy 10 - - - -
22/03:00am 13.9 W 9 11 1027.5 - 2.2 - Cloudy 10 - - - -
22/02:30am 14.0 WSW 9 13 1027.9 - 2.2 - Partly cloudy 10 - - - -
22/02:05am 14.2 WSW 9 14 1028.2 - 2.2 - Partly cloudy 7 - - - -
22/02:00am 14.2 WSW 9 14 1028.3 - 2.2 - Partly cloudy 7 - - - -
22/01:46am 14.2 W 8 11 1028.5 - 2.0 - Partly cloudy 10 - - - -
22/01:42am 14.3 W 8 12 1028.5 - 2.0 - Partly cloudy 10 - - - -
22/01:31am 14.3 W 8 10 1028.7 - 2.0 - Partly cloudy 6 - - - -
22/01:30am 14.2 W 8 10 1028.7 - 2.0 - Partly cloudy 7 - - - -
22/01:00am 14.4 W 6 9 1029.1 - 1.8 - Partly cloudy 10 - - - -
22/12:38am 14.5 W 7 9 1029.4 - 1.4 - Partly cloudy 6 - - - -
22/12:30am 14.6 WSW 7 10 1029.5 - 1.0 - Partly cloudy 10 - - - -
22/12:17am 14.7 W 6 8 1029.6 - 1.0 - Partly cloudy 10 - - - -
22/12:00am 14.8 WSW 8 12 1029.9 - 1.0 - Cloudy 6 - - - -
 
Date/Time
EDT
Temp

°C
Wind Pressure Rain
since 9am
mm
Weather Cloud Vis
km
Sea
Height
m
Swell
Dir
 
Speed
knots
Gust
knots
hPa Trend Height
m
Period
s
Dir
21/11:56pm 14.8 WSW 9 12 1029.8 - 0.8 - Partly cloudy 6 - - - -
21/11:30pm 15.3 W 7 9 1029.9 - 0.6 - Partly cloudy 10 - - - -
21/11:15pm 15.4 NW 5 6 1029.9 - 0.6 - Partly cloudy 10 - - - -
21/11:00pm 15.5 E 4 6 1030.1 - 0.6 - Partly cloudy 4 - - - -
21/10:38pm 15.0 SW 5 7 1030.3 - 0.2 - Partly cloudy 6 - - - -
21/10:36pm 15.0 SW 6 8 1030.3 - 0.2 - Partly cloudy 8 - - - -
21/10:30pm 15.0 SW 7 10 1030.3 - 0.2 - Partly cloudy 9 - - - -
21/10:03pm 15.8 SSE 15 19 1030.4 - 0.0 - Partly cloudy 6 - - - -
21/10:00pm 15.9 SSE 16 19 1030.4 - 0.0 - Partly cloudy 8 - - - -
21/09:30pm 17.8 S 14 18 1029.9 - 0.0 - Partly cloudy 10 - - - -
21/09:00pm 17.8 S 12 16 1029.9 - 0.0 - Cloudy 10 - - - -
21/08:30pm 17.9 S 14 18 1029.7 - 0.0 - Partly cloudy 10 - - - -
21/08:00pm 18.2 SSE 14 19 1029.3 - 0.0 - Partly cloudy 10 - - - -
21/07:30pm 18.4 S 14 19 1029.0 - 0.0 - Cloudy 10 - - - -
21/07:00pm 18.3 S 14 19 1028.9 - 0.0 - Cloudy 10 - - - -
21/06:30pm 18.6 S 16 21 1028.7 - 0.0 - Partly cloudy 10 - - - -
21/06:00pm 18.6 S 16 20 1028.6 - 0.0 - Mostly clear 10 - - - -
21/05:30pm 19.7 S 15 20 1028.3 - 0.0 - Partly cloudy 10 - - - -
21/05:00pm 20.0 S 15 20 1028.3 - 0.0 - - 10 - - - -
21/04:30pm 19.9 S 16 20 1028.2 - 0.0 - Partly cloudy 10 - - - -
21/04:00pm 20.3 S 16 21 1028.3 - 0.0 - Cloudy 10 - - - -
21/03:30pm 19.9 S 18 22 1028.5 - 0.0 - Cloudy 10 - - - -
21/03:00pm 20.7 S 16 21 1028.9 F 0.0 Fine Mostly cloudy 20 - - - -
21/02:30pm 21.7 S 15 19 1029.1 - 0.0 - Partly cloudy 10 - - - -
21/02:00pm 21.2 S 16 21 1029.4 - 0.0 - Mostly clear 10 - - - -
21/01:30pm 21.2 S 16 20 1029.9 - 0.0 - Mostly clear 10 - - - -
21/01:00pm 21.3 S 16 19 1029.9 - 0.0 - Mostly clear 10 - - - -
21/12:30pm 20.6 S 16 20 1030.2 - 0.0 - Mostly clear 10 - - - -
21/12:00pm 20.7 S 15 20 1030.5 - 0.0 - Partly cloudy 10 - - - -
21/11:30am 20.5 S 17 22 1030.4 - 0.0 - Partly cloudy 10 - - - -
21/11:00am 19.0 S 17 21 1030.6 - 0.0 - Partly cloudy 10 - - - -
21/10:30am 19.9 SW 15 21 1030.5 - 0.0 - Mostly clear 10 - - - -
21/10:00am 19.6 SW 15 19 1030.4 - 0.0 - Mostly clear 10 - - - -
21/09:30am 18.9 SW 15 20 1030.4 - 0.0 - Cloudy 10 - - - -
21/09:00am 18.6 SW 12 17 1030.3 R 0.0 Fine Mostly cloudy 20 - - - -
21/08:30am 17.6 SW 13 17 1029.9 - 0.0 - Mostly clear 10 - - - -
21/08:00am 17.0 SW 12 16 1029.7 - 0.0 - Mostly clear 10 - - - -
21/07:30am 16.7 SW 11 15 1029.4 - 0.0 - Mostly clear 10 - - - -
21/07:00am 16.6 SW 12 16 1029.1 - 0.0 - Mostly clear 10 - - - -
21/06:30am 16.5 SSW 13 19 1028.7 - 0.0 - Mostly clear 10 - - - -
21/06:00am 16.5 SW 11 13 1028.4 F 0.0 Fine Mostly cloudy 20 - - - -
21/05:30am 16.6 SW 9 13 1028.2 - 0.0 - Cloudy 10 - - - -
21/05:00am 16.6 SW 12 17 1027.9 - 0.0 - Cloudy 10 - - - -
21/04:30am 16.7 SW 9 13 1027.9 - 0.0 - Cloudy 10 - - - -
21/04:00am 16.7 WSW 10 13 1027.9 - 0.0 - Cloudy 10 - - - -
21/03:30am 16.6 SW 10 13 1028.0 - 0.0 - Partly cloudy 10 - - - -
21/03:00am 16.4 SW 9 16 1028.2 - 0.0 - Cloudy 10 - - - -
21/02:54am 16.4 SW 8 12 1028.1 - 0.0 - Partly cloudy 10 - - - -
21/02:34am 16.8 SW 11 14 1028.2 - 0.0 - Partly cloudy 6 - - - -
21/02:30am 17.0 SW 11 14 1028.3 - 0.0 - Partly cloudy 8 - - - -
21/02:00am 17.4 SW 10 14 1028.3 - 0.0 - Partly cloudy 10 - - - -
21/01:30am 17.3 SW 11 15 1028.5 - 0.0 - Cloudy 10 - - - -
21/01:00am 17.4 SW 11 15 1028.6 - 0.0 - Cloudy 10 - - - -
21/12:30am 17.4 SW 13 17 1028.8 - 0.0 - Cloudy 10 - - - -
21/12:00am 17.3 SW 14 18 1028.9 - 0.0 - Cloudy 10 - - - -
 
Date/Time
EDT
Temp

°C
Wind Pressure Rain
since 9am
mm
Weather Cloud Vis
km
Sea
Height
m
Swell
Dir
 
Speed
knots
Gust
knots
hPa Trend Height
m
Period
s
Dir
20/11:30pm 17.5 WSW 12 16 1029.1 - 0.0 - Cloudy 10 - - - -
20/11:00pm 17.7 SW 15 19 1029.2 - 0.0 - Cloudy 10 - - - -
20/10:30pm 17.8 WSW 12 17 1029.2 - 0.0 - Partly cloudy 10 - - - -
20/10:00pm 17.7 WSW 12 16 1029.1 - 0.0 - Partly cloudy 10 - - - -
20/09:30pm 18.1 SSW 13 18 1029.2 - 0.0 - Partly cloudy 10 - - - -
20/09:00pm 18.6 S 19 26 1028.8 - 0.0 - Cloudy 10 - - - -
20/08:30pm 19.7 SSW 17 22 1028.3 - 0.0 - Partly cloudy 10 - - - -
20/08:00pm 19.8 SSW 18 24 1028.0 - 0.0 - Cloudy 10 - - - -
20/07:30pm 19.8 SSW 17 25 1027.6 - 0.0 - Partly cloudy 10 - - - -
20/07:00pm 19.8 S 19 25 1027.3 - 0.0 - Partly cloudy 10 - - - -
20/06:30pm 20.1 S 21 29 1027.0 - 0.0 - Cloudy 10 - - - -
20/06:00pm 20.1 S 20 27 1026.7 - 0.0 - Mostly clear 10 - - - -
20/05:30pm 21.0 S 21 28 1026.2 - 0.0 - - 10 - - - -
20/05:00pm 21.2 S 22 29 1025.9 - 0.0 - - 10 - - - -
20/04:30pm 21.7 S 24 35 1025.5 - 0.0 - - 10 - - - -
20/04:00pm 21.9 S 25 35 1025.1 - 0.0 - - 9 - - - -
20/03:30pm 22.2 S 25 34 1025.1 - 0.0 - - 8 - - - -
20/03:08pm 22.6 S 23 33 1025.1 - 0.0 - Mostly clear 10 - - - -
20/03:00pm 22.8 S 24 31 1025.2 R 0.0 Haze Mostly clear 10 - - - -
20/02:28pm 23.4 S 16 26 1025.3 - 0.0 - Partly cloudy 10 - - - -
20/02:00pm 23.5 S 17 22 1025.5 - 0.0 - Mostly clear 10 - - - -
20/01:53pm 23.5 S 17 22 1025.6 - 0.0 - Mostly clear 10 - - - -
20/01:30pm 23.1 S 10 12 1025.3 - 0.0 - - 10 - - - -
20/01:00pm 23.5 E 9 11 1024.8 - 0.0 - - 10 - - - -
20/12:30pm 22.8 NE 8 10 1024.2 - 0.0 - - 10 - - - -
20/12:00pm 22.9 ENE 9 13 1024.5 R 0.0 Fine Clear 40 - - - -
20/11:30am 22.5 ENE 10 14 1024.4 - 0.0 - - 10 - - - -
20/11:00am 22.8 ENE 8 11 1024.3 - 0.0 - - 10 - - - -
20/10:30am 22.7 ENE 8 10 1024.4 - 0.0 - - 10 - - - -
20/10:00am 22.7 SE 6 7 1024.3 - 0.0 - - 10 - - - -
20/09:30am 21.6 SE 7 8 1024.1 - 0.0 - - 10 - - - -
20/09:00am 21.9 NW 5 8 1024.2 R 0.0 Fine Clear 40 - - - -
20/08:30am 21.0 NW 8 11 1024.1 - 0.0 - - 10 - - - -
20/08:00am 19.9 NW 9 12 1023.9 - 0.0 - - 10 - - - -
20/07:30am 18.4 NW 6 8 1023.9 - 0.0 - - 10 - - - -
20/07:00am 16.3 NW 8 11 1023.8 - 0.0 - - 10 - - - -
20/06:30am 13.7 WNW 6 9 1023.6 - 0.0 - - 10 - - - -
20/06:00am 13.1 NNW 4 6 1023.4 F 0.0 Fine Clear 40 - - - -
20/05:30am 12.8 NW 5 7 1023.3 - 0.0 - - 10 - - - -
20/05:00am 12.8 N 1 3 1023.1 - 0.0 - - 10 - - - -
20/04:30am 13.1 N 6 9 1023.3 - 0.0 - - 10 - - - -
20/04:00am 13.6 NNW 6 8 1023.4 - 0.0 - - 10 - - - -
20/03:30am 14.2 N 7 9 1023.8 - 0.0 - - 10 - - - -
20/03:00am 13.5 N 6 7 1024.1 - 0.0 - - 10 - - - -
20/02:30am 13.5 NNW 4 6 1024.5 - 0.0 - - 10 - - - -
20/02:00am 13.7 NNW 6 7 1024.9 - 0.0 - - 10 - - - -
20/01:30am 14.0 NNW 6 7 1025.2 - 0.0 - - 10 - - - -
20/01:00am 13.8 NW 6 7 1025.6 - 0.0 - - 10 - - - -

Other Formats:

Comma delimited format used in spreadsheet applications
http://www.bom.gov.au/fwo/IDN60701/IDN60701.94791.axf

JavaScript Object Notation format (JSON) in row-major order
http://www.bom.gov.au/fwo/IDN60701/IDN60701.94791.json